Big Flats, New York
Current Conditions -  °F | °C
As of 6:53 PM on Saturday 25 Oct 2014 (Local Time) from KELM Reporting Station
Overcast Overcast  
Wind Chill: 63°   Ceiling: 6500
Heat Index: 63°   Visibility: 10mi
Dew Point: 48°   Wind: 6mph
Humidity: 58%   Direction: 260°W
Pressure: 29.59"   Gusts: NA
Location:  42.14°N, 76.93°W
Report Text: KELM 252253Z AUTO 26005KT 10SM SCT050 BKN065 OVC090 17/09 A2959 RMK AO2 SLP022 T01720089
Loading
Personal Weather Stations






























Interactive Weather Map
Tropical Storm Tracking
New forecast layout! Learn more

10-Day Weather Forecast

Advertisements
Track Severe Weather on mobile